Check out our new PWSWeather beta!
PWSweather.com
Personal Weather Stations
Station Observations
KVAGLENALL
West Henrico, Glen Allen, VA 23060-6503

West HenricoGlen Allen, VA 23060-6503

Lat: 37.6554, Lon: -77.5693

Elevation: 273

Station Type: Davis Vantage Pro II

www.glenallenweather.com

High Low Average
Temperature 56.5°F13.6°C 39.5°F4.2°C 47.2°F8.4°C
Dew Point 39.2°F4.0°C 31.9°F-0.1°C 34.3°F1.3°C
Winds 12.0 mph 19.3 kmh Calm Calm 3.0 mph WSW4.8 kmh WSW
Wind Gusts 17.2 mph27.7 kmh -- 7.0 mph11.3 kmh
Humidity 78% 47% 62%
Pressure 30.27 in1025.1 mb 29.87 in1011.5 mb -
Precipitation 0.00 in0.0 mm - -
Hour Temp Dew Point Humidity Winds Wind Gusts Pressure Precip Precip Rate Daily Precip Total
12:30 AM 50.1°F10.1°C 39.2°F4.0°C 66% 1.0 mph WSW1.6 kmh WSW 9.1 mph14.6 kmh 29.87 in1011.5 mb 0.00 in0.0 mm 0.00 in0.0 mm 0.00 in0.0 mm
01:30 AM 49.9°F9.9°C 35.2°F1.8°C 57% 3.0 mph NW4.8 kmh NW 10.1 mph16.3 kmh 29.88 in1011.9 mb 0.00 in0.0 mm 0.00 in0.0 mm 0.00 in0.0 mm
02:30 AM 48.9°F9.4°C 34.0°F1.1°C 56% 3.0 mph N4.8 kmh N 11.1 mph17.9 kmh 29.91 in1012.9 mb 0.00 in0.0 mm 0.00 in0.0 mm 0.00 in0.0 mm
03:30 AM 47.5°F8.6°C 33.1°F0.6°C 57% 2.0 mph W3.2 kmh W 10.1 mph16.3 kmh 29.93 in1013.5 mb 0.00 in0.0 mm 0.00 in0.0 mm 0.00 in0.0 mm
04:30 AM 44.5°F6.9°C 32.7°F0.4°C 63% Calm Calm -- 29.96 in1014.6 mb 0.00 in0.0 mm 0.00 in0.0 mm 0.00 in0.0 mm
05:30 AM 41.9°F5.5°C 32.9°F0.5°C 70% Calm Calm 1.0 mph1.6 kmh 29.98 in1015.2 mb 0.00 in0.0 mm 0.00 in0.0 mm 0.00 in0.0 mm
06:30 AM 42.2°F5.7°C 32.4°F0.2°C 68% 2.0 mph S3.2 kmh S 3.0 mph4.8 kmh 30.01 in1016.3 mb 0.00 in0.0 mm 0.00 in0.0 mm 0.00 in0.0 mm
07:30 AM 39.5°F4.2°C 33.2°F0.7°C 78% 2.0 mph NNW3.2 kmh NNW 3.0 mph4.8 kmh 30.03 in1016.9 mb 0.00 in0.0 mm 0.00 in0.0 mm 0.00 in0.0 mm
08:30 AM 47.6°F8.7°C 36.9°F2.7°C 66% 1.0 mph NW1.6 kmh NW 2.0 mph3.2 kmh 30.06 in1017.9 mb 0.00 in0.0 mm 0.00 in0.0 mm 0.00 in0.0 mm
09:30 AM 53.7°F12.1°C 37.9°F3.3°C 55% 2.0 mph W3.2 kmh W 3.0 mph4.8 kmh 30.09 in1019.0 mb 0.00 in0.0 mm 0.00 in0.0 mm 0.00 in0.0 mm
10:30 AM 54.8°F12.7°C 37.0°F2.8°C 51% 4.0 mph N6.4 kmh N 7.1 mph11.4 kmh 30.11 in1019.6 mb 0.00 in0.0 mm 0.00 in0.0 mm 0.00 in0.0 mm
11:30 AM 56.5°F13.6°C 37.1°F2.8°C 48% 5.0 mph NNE8.0 kmh NNE 8.1 mph13.0 kmh 30.11 in1019.6 mb 0.00 in0.0 mm 0.00 in0.0 mm 0.00 in0.0 mm
12:30 PM 55.9°F13.3°C 36.5°F2.5°C 48% 4.0 mph NNW6.4 kmh NNW 17.2 mph27.7 kmh 30.12 in1020.0 mb 0.00 in0.0 mm 0.00 in0.0 mm 0.00 in0.0 mm
01:30 PM 56.1°F13.4°C 36.2°F2.3°C 47% 12.0 mph NNW19.3 kmh NNW 14.1 mph22.7 kmh 30.12 in1020.0 mb 0.00 in0.0 mm 0.00 in0.0 mm 0.00 in0.0 mm
02:30 PM 53.7°F12.1°C 34.5°F1.4°C 48% 11.0 mph NNW17.7 kmh NNW 12.1 mph19.5 kmh 30.13 in1020.3 mb 0.00 in0.0 mm 0.00 in0.0 mm 0.00 in0.0 mm
03:30 PM 50.9°F10.5°C 33.9°F1.1°C 52% 3.0 mph N4.8 kmh N 5.1 mph8.2 kmh 30.16 in1021.3 mb 0.00 in0.0 mm 0.00 in0.0 mm 0.00 in0.0 mm
04:30 PM 47.6°F8.7°C 33.2°F0.7°C 57% 3.0 mph NW4.8 kmh NW 5.1 mph8.2 kmh 30.18 in1022.0 mb 0.00 in0.0 mm 0.00 in0.0 mm 0.00 in0.0 mm
05:30 PM 44.0°F6.7°C 33.0°F0.6°C 65% 2.0 mph N3.2 kmh N 2.0 mph3.2 kmh 30.21 in1023.0 mb 0.00 in0.0 mm 0.00 in0.0 mm 0.00 in0.0 mm
06:30 PM 42.0°F5.6°C 33.0°F0.6°C 70% 1.0 mph NW1.6 kmh NW 2.0 mph3.2 kmh 30.23 in1023.7 mb 0.00 in0.0 mm 0.00 in0.0 mm 0.00 in0.0 mm
07:30 PM 42.6°F5.9°C 32.4°F0.2°C 67% 6.0 mph NW9.7 kmh NW 10.1 mph16.3 kmh 30.23 in1023.7 mb 0.00 in0.0 mm 0.00 in0.0 mm 0.00 in0.0 mm
08:30 PM 41.2°F5.1°C 32.5°F0.3°C 71% 2.0 mph ENE3.2 kmh ENE 3.0 mph4.8 kmh 30.24 in1024.0 mb 0.00 in0.0 mm 0.00 in0.0 mm 0.00 in0.0 mm
09:30 PM 39.5°F4.2°C 31.9°F-0.1°C 74% 1.0 mph NW1.6 kmh NW 3.0 mph4.8 kmh 30.25 in1024.4 mb 0.00 in0.0 mm 0.00 in0.0 mm 0.00 in0.0 mm
10:30 PM 40.7°F4.8°C 32.7°F0.4°C 73% 3.0 mph NNW4.8 kmh NNW 7.1 mph11.4 kmh 30.26 in1024.7 mb 0.00 in0.0 mm 0.00 in0.0 mm 0.00 in0.0 mm
11:30 PM 40.9°F4.9°C 32.9°F0.5°C 73% 8.0 mph NNE12.9 kmh NNE 11.1 mph17.9 kmh 30.27 in1025.1 mb 0.00 in0.0 mm 0.00 in0.0 mm 0.00 in0.0 mm